sensor_id;sensor_type;location;lat;lon;timestamp;pressure;altitude;pressure_sealevel;temperature;humidity
26531;BME280;14201;43.188;24.160;2022-11-04T00:01:45;99754.13;;;10.78;66.79
26531;BME280;14201;43.188;24.160;2022-11-04T00:04:13;99748.38;;;10.66;66.99
26531;BME280;14201;43.188;24.160;2022-11-04T00:06:39;99749.25;;;10.66;67.70
26531;BME280;14201;43.188;24.160;2022-11-04T00:09:07;99753.41;;;10.61;69.09
26531;BME280;14201;43.188;24.160;2022-11-04T00:11:42;99744.00;;;10.64;69.93
26531;BME280;14201;43.188;24.160;2022-11-04T00:14:29;99748.53;;;10.49;71.81
26531;BME280;14201;43.188;24.160;2022-11-04T00:16:56;99747.44;;;10.44;71.77
26531;BME280;14201;43.188;24.160;2022-11-04T00:19:40;99743.66;;;10.57;71.37
26531;BME280;14201;43.188;24.160;2022-11-04T00:22:24;99741.69;;;10.32;69.91
26531;BME280;14201;43.188;24.160;2022-11-04T00:25:08;99737.78;;;10.41;70.07
26531;BME280;14201;43.188;24.160;2022-11-04T00:28:18;99752.84;;;10.49;69.78
26531;BME280;14201;43.188;24.160;2022-11-04T00:31:04;99748.72;;;10.54;70.51
26531;BME280;14201;43.188;24.160;2022-11-04T00:33:50;99735.84;;;10.57;70.81
26531;BME280;14201;43.188;24.160;2022-11-04T00:36:16;99740.38;;;10.61;71.20
26531;BME280;14201;43.188;24.160;2022-11-04T00:38:41;99738.81;;;10.45;67.41
26531;BME280;14201;43.188;24.160;2022-11-04T00:41:07;99728.22;;;10.22;67.13
26531;BME280;14201;43.188;24.160;2022-11-04T00:43:59;99728.41;;;10.08;67.18
26531;BME280;14201;43.188;24.160;2022-11-04T00:46:26;99732.19;;;10.14;67.89
26531;BME280;14201;43.188;24.160;2022-11-04T00:48:52;99726.84;;;10.11;68.09
26531;BME280;14201;43.188;24.160;2022-11-04T00:51:18;99705.06;;;10.09;69.74
26531;BME280;14201;43.188;24.160;2022-11-04T00:53:45;99711.66;;;10.20;70.11
26531;BME280;14201;43.188;24.160;2022-11-04T00:56:11;99711.22;;;10.11;69.07
26531;BME280;14201;43.188;24.160;2022-11-04T00:58:37;99706.84;;;10.10;69.20
26531;BME280;14201;43.188;24.160;2022-11-04T01:01:14;99703.22;;;10.07;70.99
26531;BME280;14201;43.188;24.160;2022-11-04T01:03:44;99696.78;;;9.98;71.55
26531;BME280;14201;43.188;24.160;2022-11-04T01:06:09;99707.03;;;9.95;70.05
26531;BME280;14201;43.188;24.160;2022-11-04T01:08:35;99707.72;;;9.91;70.46
26531;BME280;14201;43.188;24.160;2022-11-04T01:11:04;99702.69;;;9.76;69.47
26531;BME280;14201;43.188;24.160;2022-11-04T01:13:30;99695.56;;;9.72;68.90
26531;BME280;14201;43.188;24.160;2022-11-04T01:16:01;99696.00;;;9.81;69.55
26531;BME280;14201;43.188;24.160;2022-11-04T01:18:26;99696.13;;;9.84;70.15
26531;BME280;14201;43.188;24.160;2022-11-04T01:20:52;99687.53;;;9.85;70.22
26531;BME280;14201;43.188;24.160;2022-11-04T01:23:18;99682.44;;;9.89;71.38
26531;BME280;14201;43.188;24.160;2022-11-04T01:25:44;99691.28;;;9.92;72.10
26531;BME280;14201;43.188;24.160;2022-11-04T01:28:10;99697.59;;;9.97;70.80
26531;BME280;14201;43.188;24.160;2022-11-04T01:30:38;99689.59;;;9.93;70.99
26531;BME280;14201;43.188;24.160;2022-11-04T01:33:04;99679.56;;;9.82;70.83
26531;BME280;14201;43.188;24.160;2022-11-04T01:35:30;99697.50;;;9.76;70.69
26531;BME280;14201;43.188;24.160;2022-11-04T01:37:57;99685.34;;;9.75;70.73
26531;BME280;14201;43.188;24.160;2022-11-04T01:40:22;99680.56;;;9.66;71.39
26531;BME280;14201;43.188;24.160;2022-11-04T01:42:48;99678.94;;;9.69;71.22
26531;BME280;14201;43.188;24.160;2022-11-04T01:45:16;99666.69;;;9.66;71.33
26531;BME280;14201;43.188;24.160;2022-11-04T01:47:47;99672.97;;;9.71;71.79
26531;BME280;14201;43.188;24.160;2022-11-04T01:50:22;99653.53;;;9.63;71.36
26531;BME280;14201;43.188;24.160;2022-11-04T01:55:28;99656.06;;;9.61;71.70
26531;BME280;14201;43.188;24.160;2022-11-04T01:57:58;99665.47;;;9.58;71.89
26531;BME280;14201;43.188;24.160;2022-11-04T02:00:25;99647.91;;;9.54;72.53
26531;BME280;14201;43.188;24.160;2022-11-04T02:05:27;99643.69;;;9.56;72.14
26531;BME280;14201;43.188;24.160;2022-11-04T02:07:55;99639.66;;;9.62;70.48
26531;BME280;14201;43.188;24.160;2022-11-04T02:10:25;99639.56;;;9.61;71.06
26531;BME280;14201;43.188;24.160;2022-11-04T02:12:52;99644.56;;;9.56;70.59
26531;BME280;14201;43.188;24.160;2022-11-04T02:29:59;99639.09;;;9.32;73.61
26531;BME280;14201;43.188;24.160;2022-11-04T02:35:09;99651.13;;;9.30;73.55
26531;BME280;14201;43.188;24.160;2022-11-04T02:37:53;99632.81;;;9.27;74.26
26531;BME280;14201;43.188;24.160;2022-11-04T02:43:22;99640.00;;;9.33;73.28
26531;BME280;14201;43.188;24.160;2022-11-04T02:46:02;99634.06;;;9.35;72.66
26531;BME280;14201;43.188;24.160;2022-11-04T02:49:26;99625.50;;;9.38;72.57
26531;BME280;14201;43.188;24.160;2022-11-04T02:51:35;99624.47;;;9.34;73.08
26531;BME280;14201;43.188;24.160;2022-11-04T02:54:08;99633.22;;;9.36;74.09
26531;BME280;14201;43.188;24.160;2022-11-04T02:56:38;99630.59;;;9.35;74.46
26531;BME280;14201;43.188;24.160;2022-11-04T02:59:10;99625.22;;;9.32;74.74
26531;BME280;14201;43.188;24.160;2022-11-04T03:01:40;99625.91;;;9.27;74.63
26531;BME280;14201;43.188;24.160;2022-11-04T03:04:13;99626.50;;;9.22;74.78
26531;BME280;14201;43.188;24.160;2022-11-04T03:06:41;99610.47;;;9.13;74.87
26531;BME280;14201;43.188;24.160;2022-11-04T03:09:09;99625.63;;;9.21;75.74
26531;BME280;14201;43.188;24.160;2022-11-04T03:11:37;99618.88;;;9.25;73.19
26531;BME280;14201;43.188;24.160;2022-11-04T03:14:35;99624.09;;;9.26;70.40
26531;BME280;14201;43.188;24.160;2022-11-04T03:17:05;99620.06;;;9.14;69.45
26531;BME280;14201;43.188;24.160;2022-11-04T03:19:57;99614.56;;;9.07;69.88
26531;BME280;14201;43.188;24.160;2022-11-04T03:22:28;99613.16;;;8.96;70.58
26531;BME280;14201;43.188;24.160;2022-11-04T03:24:55;99624.28;;;8.76;71.03
26531;BME280;14201;43.188;24.160;2022-11-04T03:27:32;99616.19;;;8.70;72.22
26531;BME280;14201;43.188;24.160;2022-11-04T03:30:08;99618.50;;;8.63;72.69
26531;BME280;14201;43.188;24.160;2022-11-04T03:35:42;99627.28;;;8.49;73.36
26531;BME280;14201;43.188;24.160;2022-11-04T03:38:08;99615.72;;;8.42;73.47
26531;BME280;14201;43.188;24.160;2022-11-04T03:40:34;99624.06;;;8.53;72.69
26531;BME280;14201;43.188;24.160;2022-11-04T03:43:11;99615.44;;;8.54;73.41
26531;BME280;14201;43.188;24.160;2022-11-04T03:45:39;99609.28;;;8.52;74.13
26531;BME280;14201;43.188;24.160;2022-11-04T03:48:06;99610.41;;;8.57;73.91
26531;BME280;14201;43.188;24.160;2022-11-04T03:50:38;99611.84;;;8.69;73.63
26531;BME280;14201;43.188;24.160;2022-11-04T03:53:04;99615.97;;;8.65;73.73
26531;BME280;14201;43.188;24.160;2022-11-04T04:02:02;99594.53;;;8.51;74.02
26531;BME280;14201;43.188;24.160;2022-11-04T04:06:42;99594.53;;;8.51;74.72
26531;BME280;14201;43.188;24.160;2022-11-04T04:09:36;99596.31;;;8.52;74.87
26531;BME280;14201;43.188;24.160;2022-11-04T04:12:13;99593.69;;;8.52;74.63
26531;BME280;14201;43.188;24.160;2022-11-04T04:14:51;99589.84;;;8.62;74.76
26531;BME280;14201;43.188;24.160;2022-11-04T04:17:34;99594.09;;;8.60;74.48
26531;BME280;14201;43.188;24.160;2022-11-04T04:20:05;99591.69;;;8.64;73.48
26531;BME280;14201;43.188;24.160;2022-11-04T04:22:37;99595.22;;;8.65;72.84
26531;BME280;14201;43.188;24.160;2022-11-04T04:25:06;99592.16;;;8.56;73.60
26531;BME280;14201;43.188;24.160;2022-11-04T04:27:55;99595.88;;;8.61;73.55
26531;BME280;14201;43.188;24.160;2022-11-04T04:30:22;99594.16;;;8.61;72.83
26531;BME280;14201;43.188;24.160;2022-11-04T04:32:55;99588.13;;;8.62;73.06
26531;BME280;14201;43.188;24.160;2022-11-04T04:35:26;99586.81;;;8.53;73.52
26531;BME280;14201;43.188;24.160;2022-11-04T04:38:18;99596.75;;;8.61;73.88
26531;BME280;14201;43.188;24.160;2022-11-04T04:41:20;99590.31;;;8.53;72.47
26531;BME280;14201;43.188;24.160;2022-11-04T04:44:20;99599.84;;;8.54;72.83
26531;BME280;14201;43.188;24.160;2022-11-04T04:47:07;99598.69;;;8.47;72.98
26531;BME280;14201;43.188;24.160;2022-11-04T04:49:34;99598.44;;;8.43;73.64
26531;BME280;14201;43.188;24.160;2022-11-04T04:52:01;99596.22;;;8.51;73.04
26531;BME280;14201;43.188;24.160;2022-11-04T04:54:27;99607.44;;;8.50;73.20
26531;BME280;14201;43.188;24.160;2022-11-04T04:56:53;99600.16;;;8.42;73.97
26531;BME280;14201;43.188;24.160;2022-11-04T04:59:18;99599.25;;;8.42;74.69
26531;BME280;14201;43.188;24.160;2022-11-04T05:01:44;99601.31;;;8.49;74.58
26531;BME280;14201;43.188;24.160;2022-11-04T05:04:10;99607.59;;;8.36;71.63
26531;BME280;14201;43.188;24.160;2022-11-04T05:06:35;99603.16;;;8.34;72.93
26531;BME280;14201;43.188;24.160;2022-11-04T05:09:01;99604.31;;;8.22;72.81
26531;BME280;14201;43.188;24.160;2022-11-04T05:11:27;99610.06;;;8.00;73.43
26531;BME280;14201;43.188;24.160;2022-11-04T05:13:53;99601.97;;;7.94;73.82
26531;BME280;14201;43.188;24.160;2022-11-04T05:16:19;99612.34;;;7.94;75.06
26531;BME280;14201;43.188;24.160;2022-11-04T05:18:44;99615.44;;;7.87;75.16
26531;BME280;14201;43.188;24.160;2022-11-04T05:21:12;99617.44;;;7.93;75.38
26531;BME280;14201;43.188;24.160;2022-11-04T05:23:38;99621.50;;;8.04;75.77
26531;BME280;14201;43.188;24.160;2022-11-04T05:26:04;99618.44;;;8.11;75.73
26531;BME280;14201;43.188;24.160;2022-11-04T05:28:31;99615.97;;;8.14;76.01
26531;BME280;14201;43.188;24.160;2022-11-04T05:30:58;99622.28;;;8.19;76.17
26531;BME280;14201;43.188;24.160;2022-11-04T05:33:26;99624.53;;;8.29;76.76
26531;BME280;14201;43.188;24.160;2022-11-04T05:35:52;99628.44;;;8.38;77.80
26531;BME280;14201;43.188;24.160;2022-11-04T05:38:17;99618.91;;;8.55;76.96
26531;BME280;14201;43.188;24.160;2022-11-04T05:40:43;99626.19;;;8.44;71.61
26531;BME280;14201;43.188;24.160;2022-11-04T05:43:10;99630.94;;;8.36;71.06
26531;BME280;14201;43.188;24.160;2022-11-04T05:45:35;99632.34;;;8.46;71.79
26531;BME280;14201;43.188;24.160;2022-11-04T05:48:04;99636.81;;;8.66;74.20
26531;BME280;14201;43.188;24.160;2022-11-04T05:50:31;99640.09;;;8.29;74.80
26531;BME280;14201;43.188;24.160;2022-11-04T05:52:58;99644.75;;;8.52;74.36
26531;BME280;14201;43.188;24.160;2022-11-04T05:55:24;99639.81;;;8.92;74.90
26531;BME280;14201;43.188;24.160;2022-11-04T05:57:51;99650.66;;;9.19;75.09
26531;BME280;14201;43.188;24.160;2022-11-04T06:00:17;99641.41;;;9.26;73.04
26531;BME280;14201;43.188;24.160;2022-11-04T06:02:43;99636.50;;;9.32;73.53
26531;BME280;14201;43.188;24.160;2022-11-04T06:05:08;99640.50;;;9.43;73.44
26531;BME280;14201;43.188;24.160;2022-11-04T06:07:34;99648.25;;;9.61;73.57
26531;BME280;14201;43.188;24.160;2022-11-04T06:10:00;99642.00;;;9.76;73.45
26531;BME280;14201;43.188;24.160;2022-11-04T06:12:26;99647.75;;;9.88;73.07
26531;BME280;14201;43.188;24.160;2022-11-04T06:14:52;99658.03;;;10.04;73.64
26531;BME280;14201;43.188;24.160;2022-11-04T06:17:19;99647.69;;;10.25;71.92
26531;BME280;14201;43.188;24.160;2022-11-04T06:19:45;99651.72;;;10.38;71.39
26531;BME280;14201;43.188;24.160;2022-11-04T06:22:13;99650.03;;;10.60;71.29
26531;BME280;14201;43.188;24.160;2022-11-04T06:24:39;99656.59;;;10.92;70.13
26531;BME280;14201;43.188;24.160;2022-11-04T06:27:05;99651.03;;;11.06;70.31
26531;BME280;14201;43.188;24.160;2022-11-04T06:29:31;99653.41;;;11.22;70.74
26531;BME280;14201;43.188;24.160;2022-11-04T06:31:57;99660.81;;;11.32;70.01
26531;BME280;14201;43.188;24.160;2022-11-04T06:34:23;99652.72;;;11.49;70.22
26531;BME280;14201;43.188;24.160;2022-11-04T06:36:49;99654.41;;;11.69;70.22
26531;BME280;14201;43.188;24.160;2022-11-04T06:39:15;99665.50;;;11.88;69.60
26531;BME280;14201;43.188;24.160;2022-11-04T06:41:41;99660.28;;;12.10;70.31
26531;BME280;14201;43.188;24.160;2022-11-04T06:44:07;99658.06;;;12.21;68.76
26531;BME280;14201;43.188;24.160;2022-11-04T06:46:40;99654.78;;;12.27;68.56
26531;BME280;14201;43.188;24.160;2022-11-04T06:49:13;99651.22;;;12.49;68.63
26531;BME280;14201;43.188;24.160;2022-11-04T06:51:39;99652.19;;;12.78;69.03
26531;BME280;14201;43.188;24.160;2022-11-04T06:54:05;99643.81;;;12.88;68.55
26531;BME280;14201;43.188;24.160;2022-11-04T06:56:30;99633.56;;;12.94;67.69
26531;BME280;14201;43.188;24.160;2022-11-04T06:58:56;99638.47;;;13.11;66.61
26531;BME280;14201;43.188;24.160;2022-11-04T07:01:25;99632.31;;;13.37;65.85
26531;BME280;14201;43.188;24.160;2022-11-04T07:03:53;99637.25;;;13.55;65.25
26531;BME280;14201;43.188;24.160;2022-11-04T07:06:19;99628.53;;;13.85;63.64
26531;BME280;14201;43.188;24.160;2022-11-04T07:08:47;99623.81;;;14.04;64.20
26531;BME280;14201;43.188;24.160;2022-11-04T07:11:15;99619.84;;;14.51;63.69
26531;BME280;14201;43.188;24.160;2022-11-04T07:13:41;99627.72;;;14.85;62.40
26531;BME280;14201;43.188;24.160;2022-11-04T07:16:07;99625.59;;;15.05;61.78
26531;BME280;14201;43.188;24.160;2022-11-04T07:18:33;99627.44;;;15.09;60.73
26531;BME280;14201;43.188;24.160;2022-11-04T07:20:58;99622.69;;;15.30;60.38
26531;BME280;14201;43.188;24.160;2022-11-04T07:23:24;99627.63;;;15.56;60.40
26531;BME280;14201;43.188;24.160;2022-11-04T07:25:49;99630.75;;;15.78;58.64
26531;BME280;14201;43.188;24.160;2022-11-04T07:28:15;99619.75;;;15.96;57.87
26531;BME280;14201;43.188;24.160;2022-11-04T07:30:41;99616.78;;;16.23;57.38
26531;BME280;14201;43.188;24.160;2022-11-04T07:33:07;99620.69;;;16.45;57.24
26531;BME280;14201;43.188;24.160;2022-11-04T07:35:32;99613.88;;;16.56;58.71
26531;BME280;14201;43.188;24.160;2022-11-04T07:37:57;99606.44;;;16.82;56.45
26531;BME280;14201;43.188;24.160;2022-11-04T07:40:23;99601.19;;;16.82;55.59
26531;BME280;14201;43.188;24.160;2022-11-04T07:42:49;99595.16;;;16.89;55.78
26531;BME280;14201;43.188;24.160;2022-11-04T07:45:14;99596.84;;;16.83;55.59
26531;BME280;14201;43.188;24.160;2022-11-04T07:47:39;99595.06;;;16.83;55.78
26531;BME280;14201;43.188;24.160;2022-11-04T07:50:05;99587.56;;;17.08;55.96
26531;BME280;14201;43.188;24.160;2022-11-04T07:52:30;99577.06;;;17.08;55.44
26531;BME280;14201;43.188;24.160;2022-11-04T07:54:56;99579.84;;;17.20;54.12
26531;BME280;14201;43.188;24.160;2022-11-04T07:57:22;99567.25;;;17.60;53.86
26531;BME280;14201;43.188;24.160;2022-11-04T07:59:47;99564.47;;;18.24;51.94
26531;BME280;14201;43.188;24.160;2022-11-04T08:02:13;99555.78;;;18.38;51.87
26531;BME280;14201;43.188;24.160;2022-11-04T08:04:38;99560.72;;;18.04;51.36
26531;BME280;14201;43.188;24.160;2022-11-04T08:07:06;99555.59;;;18.15;51.59
26531;BME280;14201;43.188;24.160;2022-11-04T08:09:32;99556.34;;;18.06;52.23
26531;BME280;14201;43.188;24.160;2022-11-04T08:11:57;99549.63;;;18.34;51.46
26531;BME280;14201;43.188;24.160;2022-11-04T08:14:23;99539.50;;;18.85;50.52
26531;BME280;14201;43.188;24.160;2022-11-04T08:16:51;99541.41;;;19.06;49.44
26531;BME280;14201;43.188;24.160;2022-11-04T08:19:17;99534.41;;;19.14;49.03
26531;BME280;14201;43.188;24.160;2022-11-04T08:21:42;99528.25;;;19.12;48.90
26531;BME280;14201;43.188;24.160;2022-11-04T08:24:08;99533.44;;;19.00;49.17
26531;BME280;14201;43.188;24.160;2022-11-04T08:26:33;99531.00;;;19.34;48.45
26531;BME280;14201;43.188;24.160;2022-11-04T08:28:59;99518.00;;;19.74;47.75
26531;BME280;14201;43.188;24.160;2022-11-04T08:31:27;99520.72;;;20.03;48.09
26531;BME280;14201;43.188;24.160;2022-11-04T08:33:53;99512.78;;;20.17;47.03
26531;BME280;14201;43.188;24.160;2022-11-04T08:36:22;99512.84;;;20.69;46.30
26531;BME280;14201;43.188;24.160;2022-11-04T08:38:52;99518.94;;;21.05;45.24
26531;BME280;14201;43.188;24.160;2022-11-04T08:41:29;99516.25;;;21.33;45.52
26531;BME280;14201;43.188;24.160;2022-11-04T08:43:56;99506.31;;;21.82;44.30
26531;BME280;14201;43.188;24.160;2022-11-04T08:46:26;99509.63;;;22.15;42.77
26531;BME280;14201;43.188;24.160;2022-11-04T08:48:52;99502.47;;;22.31;42.97
26531;BME280;14201;43.188;24.160;2022-11-04T08:51:23;99487.28;;;22.53;42.87
26531;BME280;14201;43.188;24.160;2022-11-04T08:53:49;99486.91;;;22.89;42.71
26531;BME280;14201;43.188;24.160;2022-11-04T08:56:18;99487.97;;;22.72;41.10
26531;BME280;14201;43.188;24.160;2022-11-04T08:58:45;99485.66;;;22.34;42.25
26531;BME280;14201;43.188;24.160;2022-11-04T09:01:10;99475.06;;;22.31;42.25
26531;BME280;14201;43.188;24.160;2022-11-04T09:03:38;99473.56;;;21.91;42.57
26531;BME280;14201;43.188;24.160;2022-11-04T09:06:06;99485.59;;;22.41;42.29
26531;BME280;14201;43.188;24.160;2022-11-04T09:08:32;99474.13;;;22.38;41.73
26531;BME280;14201;43.188;24.160;2022-11-04T09:10:58;99468.69;;;22.55;41.63
26531;BME280;14201;43.188;24.160;2022-11-04T09:13:26;99462.94;;;22.96;42.02
26531;BME280;14201;43.188;24.160;2022-11-04T09:15:52;99457.28;;;23.27;41.43
26531;BME280;14201;43.188;24.160;2022-11-04T09:18:18;99459.56;;;23.56;41.46
26531;BME280;14201;43.188;24.160;2022-11-04T09:20:43;99449.50;;;23.82;40.05
26531;BME280;14201;43.188;24.160;2022-11-04T09:23:09;99442.78;;;24.13;39.57
26531;BME280;14201;43.188;24.160;2022-11-04T09:25:34;99444.06;;;24.44;38.84
26531;BME280;14201;43.188;24.160;2022-11-04T09:28:00;99432.19;;;24.65;38.50
26531;BME280;14201;43.188;24.160;2022-11-04T09:30:26;99429.09;;;24.88;38.34
26531;BME280;14201;43.188;24.160;2022-11-04T09:32:52;99428.03;;;24.95;37.51
26531;BME280;14201;43.188;24.160;2022-11-04T09:35:17;99435.09;;;24.98;37.45
26531;BME280;14201;43.188;24.160;2022-11-04T09:37:43;99436.03;;;24.95;37.13
26531;BME280;14201;43.188;24.160;2022-11-04T09:40:19;99433.31;;;24.98;37.47
26531;BME280;14201;43.188;24.160;2022-11-04T09:42:49;99424.22;;;25.08;37.37
26531;BME280;14201;43.188;24.160;2022-11-04T09:45:18;99424.81;;;25.24;36.83
26531;BME280;14201;43.188;24.160;2022-11-04T09:47:48;99414.72;;;25.39;36.57
26531;BME280;14201;43.188;24.160;2022-11-04T09:50:20;99409.88;;;25.58;36.81
26531;BME280;14201;43.188;24.160;2022-11-04T09:52:48;99409.66;;;25.67;36.26
26531;BME280;14201;43.188;24.160;2022-11-04T09:57:51;99397.75;;;25.80;36.26
26531;BME280;14201;43.188;24.160;2022-11-04T10:00:17;99393.03;;;25.93;36.10
26531;BME280;14201;43.188;24.160;2022-11-04T10:05:56;99394.75;;;25.96;35.08
26531;BME280;14201;43.188;24.160;2022-11-04T10:10:57;99375.66;;;25.75;35.73
26531;BME280;14201;43.188;24.160;2022-11-04T10:21:10;99359.03;;;25.25;35.91
26531;BME280;14201;43.188;24.160;2022-11-04T10:23:44;99366.22;;;25.20;36.35
26531;BME280;14201;43.188;24.160;2022-11-04T10:26:17;99356.34;;;25.26;36.45
26531;BME280;14201;43.188;24.160;2022-11-04T10:28:49;99349.03;;;25.34;35.38
26531;BME280;14201;43.188;24.160;2022-11-04T10:31:17;99346.72;;;25.18;35.76
26531;BME280;14201;43.188;24.160;2022-11-04T10:36:40;99346.53;;;25.66;35.47
26531;BME280;14201;43.188;24.160;2022-11-04T10:39:11;99334.38;;;25.91;35.31
26531;BME280;14201;43.188;24.160;2022-11-04T10:41:41;99338.25;;;26.14;34.42
26531;BME280;14201;43.188;24.160;2022-11-04T10:44:19;99336.38;;;26.18;34.42
26531;BME280;14201;43.188;24.160;2022-11-04T10:52:06;99331.34;;;26.05;34.30
26531;BME280;14201;43.188;24.160;2022-11-04T10:54:38;99323.25;;;26.08;34.34
26531;BME280;14201;43.188;24.160;2022-11-04T10:57:04;99324.84;;;26.16;34.04
26531;BME280;14201;43.188;24.160;2022-11-04T10:59:30;99317.88;;;26.10;34.27
26531;BME280;14201;43.188;24.160;2022-11-04T11:01:59;99318.28;;;25.95;34.17
26531;BME280;14201;43.188;24.160;2022-11-04T11:04:29;99308.31;;;26.01;34.38
26531;BME280;14201;43.188;24.160;2022-11-04T11:06:56;99297.00;;;25.91;33.87
26531;BME280;14201;43.188;24.160;2022-11-04T11:09:26;99295.47;;;25.81;34.72
26531;BME280;14201;43.188;24.160;2022-11-04T11:11:55;99311.00;;;26.00;35.08
26531;BME280;14201;43.188;24.160;2022-11-04T11:16:53;99295.97;;;25.97;35.14
26531;BME280;14201;43.188;24.160;2022-11-04T11:19:19;99292.66;;;25.86;34.82
26531;BME280;14201;43.188;24.160;2022-11-04T11:21:49;99294.09;;;26.01;34.72
26531;BME280;14201;43.188;24.160;2022-11-04T11:24:18;99285.06;;;26.06;34.67
26531;BME280;14201;43.188;24.160;2022-11-04T11:26:44;99269.91;;;26.07;34.79
26531;BME280;14201;43.188;24.160;2022-11-04T11:29:16;99268.84;;;25.78;35.34
26531;BME280;14201;43.188;24.160;2022-11-04T11:31:44;99258.97;;;25.82;36.41
26531;BME280;14201;43.188;24.160;2022-11-04T11:34:52;99269.59;;;25.83;36.35
26531;BME280;14201;43.188;24.160;2022-11-04T11:36:59;99266.22;;;25.77;36.47
26531;BME280;14201;43.188;24.160;2022-11-04T11:39:28;99260.63;;;25.86;36.59
26531;BME280;14201;43.188;24.160;2022-11-04T11:42:10;99261.28;;;25.96;36.05
26531;BME280;14201;43.188;24.160;2022-11-04T11:44:40;99253.88;;;26.07;36.05
26531;BME280;14201;43.188;24.160;2022-11-04T11:49:43;99255.38;;;26.17;36.04
26531;BME280;14201;43.188;24.160;2022-11-04T11:52:29;99253.50;;;26.21;36.16
26531;BME280;14201;43.188;24.160;2022-11-04T11:57:42;99234.69;;;26.25;35.63
26531;BME280;14201;43.188;24.160;2022-11-04T12:00:12;99250.09;;;26.16;35.60
26531;BME280;14201;43.188;24.160;2022-11-04T12:02:54;99233.19;;;26.15;35.82
26531;BME280;14201;43.188;24.160;2022-11-04T12:05:25;99237.69;;;26.13;35.86
26531;BME280;14201;43.188;24.160;2022-11-04T12:10:26;99233.69;;;25.97;35.91
26531;BME280;14201;43.188;24.160;2022-11-04T12:15:37;99233.88;;;25.89;35.79
26531;BME280;14201;43.188;24.160;2022-11-04T12:31:04;99203.81;;;25.49;36.44
26531;BME280;14201;43.188;24.160;2022-11-04T12:33:52;99198.69;;;25.40;36.46
26531;BME280;14201;43.188;24.160;2022-11-04T12:36:24;99198.53;;;25.46;36.54
26531;BME280;14201;43.188;24.160;2022-11-04T12:41:31;99193.75;;;25.25;36.82
26531;BME280;14201;43.188;24.160;2022-11-04T12:46:52;99199.44;;;25.08;37.08
26531;BME280;14201;43.188;24.160;2022-11-04T12:51:55;99204.28;;;24.92;37.14
26531;BME280;14201;43.188;24.160;2022-11-04T13:04:39;99197.00;;;24.17;37.94
26531;BME280;14201;43.188;24.160;2022-11-04T13:07:12;99209.56;;;24.08;38.29
26531;BME280;14201;43.188;24.160;2022-11-04T13:09:42;99196.78;;;23.83;38.59
26531;BME280;14201;43.188;24.160;2022-11-04T13:12:10;99207.97;;;23.49;39.00
26531;BME280;14201;43.188;24.160;2022-11-04T13:14:40;99209.97;;;23.38;39.26
26531;BME280;14201;43.188;24.160;2022-11-04T13:17:09;99204.94;;;23.19;39.36
26531;BME280;14201;43.188;24.160;2022-11-04T13:19:39;99214.06;;;23.03;39.82
26531;BME280;14201;43.188;24.160;2022-11-04T13:22:10;99208.75;;;23.00;40.01
26531;BME280;14201;43.188;24.160;2022-11-04T13:24:39;99215.16;;;22.85;40.06
26531;BME280;14201;43.188;24.160;2022-11-04T13:27:18;99209.19;;;22.69;40.62
26531;BME280;14201;43.188;24.160;2022-11-04T13:29:47;99206.63;;;22.61;40.53
26531;BME280;14201;43.188;24.160;2022-11-04T13:32:24;99207.66;;;22.53;40.81
26531;BME280;14201;43.188;24.160;2022-11-04T13:35:07;99203.31;;;22.46;40.89
26531;BME280;14201;43.188;24.160;2022-11-04T13:37:56;99204.28;;;22.40;41.05
26531;BME280;14201;43.188;24.160;2022-11-04T13:40:39;99192.72;;;22.44;41.20
26531;BME280;14201;43.188;24.160;2022-11-04T13:43:16;99197.91;;;22.53;41.07
26531;BME280;14201;43.188;24.160;2022-11-04T13:46:25;99198.78;;;22.55;41.18
26531;BME280;14201;43.188;24.160;2022-11-04T13:51:21;99207.47;;;22.65;41.34
26531;BME280;14201;43.188;24.160;2022-11-04T13:53:56;99195.03;;;22.70;41.14
26531;BME280;14201;43.188;24.160;2022-11-04T13:59:22;99191.66;;;22.59;40.76
26531;BME280;14201;43.188;24.160;2022-11-04T14:04:39;99196.19;;;22.51;40.85
26531;BME280;14201;43.188;24.160;2022-11-04T14:07:10;99195.34;;;22.46;40.90
26531;BME280;14201;43.188;24.160;2022-11-04T14:14:52;99197.25;;;22.36;40.97
26531;BME280;14201;43.188;24.160;2022-11-04T14:20:09;99195.72;;;22.12;41.29
26531;BME280;14201;43.188;24.160;2022-11-04T14:22:49;99193.16;;;22.04;41.53
26531;BME280;14201;43.188;24.160;2022-11-04T14:25:27;99183.66;;;21.88;41.79
26531;BME280;14201;43.188;24.160;2022-11-04T14:27:59;99191.69;;;21.80;41.88
26531;BME280;14201;43.188;24.160;2022-11-04T14:30:40;99182.94;;;21.73;42.03
26531;BME280;14201;43.188;24.160;2022-11-04T14:33:22;99177.69;;;21.66;42.32
26531;BME280;14201;43.188;24.160;2022-11-04T14:35:53;99176.03;;;21.54;42.32
26531;BME280;14201;43.188;24.160;2022-11-04T14:38:24;99167.25;;;21.50;42.33
26531;BME280;14201;43.188;24.160;2022-11-04T14:43:40;99169.06;;;21.47;42.44
26531;BME280;14201;43.188;24.160;2022-11-04T14:46:07;99179.69;;;21.40;42.71
26531;BME280;14201;43.188;24.160;2022-11-04T14:48:33;99167.50;;;21.21;42.86
26531;BME280;14201;43.188;24.160;2022-11-04T14:51:00;99166.63;;;21.17;43.21
26531;BME280;14201;43.188;24.160;2022-11-04T14:53:32;99163.13;;;21.12;43.44
26531;BME280;14201;43.188;24.160;2022-11-04T14:56:21;99163.19;;;21.03;43.39
26531;BME280;14201;43.188;24.160;2022-11-04T14:58:57;99156.28;;;20.87;43.85
26531;BME280;14201;43.188;24.160;2022-11-04T15:01:25;99156.34;;;20.74;43.92
26531;BME280;14201;43.188;24.160;2022-11-04T15:03:52;99147.72;;;20.35;44.66
26531;BME280;14201;43.188;24.160;2022-11-04T15:06:28;99147.13;;;19.79;45.71
26531;BME280;14201;43.188;24.160;2022-11-04T15:08:55;99148.00;;;19.74;45.64
26531;BME280;14201;43.188;24.160;2022-11-04T15:11:27;99155.03;;;19.75;46.11
26531;BME280;14201;43.188;24.160;2022-11-04T15:16:45;99153.28;;;19.74;45.68